Monday, July 25, 2016, 1:44 PM EDT

KOXB, Ocean City Municipal Airport

Location: Berlin, MD, United States Lat: 38.317
Local Time: 1:44 PM EDT (17:44 GMT) Lon: -75.117
Time Zone: US/Eastern Elev: 13 ft

Show me the last for .
Show Decoded

2016-07-25 12:53 METAR KOXB 251653Z AUTO 26008G15KT 10SM CLR 36/23 A2994 RMK AO2 SLP140 T03560233
                 TSNO =
2016-07-25 11:53 METAR KOXB 251553Z AUTO VRB05KT 10SM CLR 35/24 A2996 RMK AO2 SLP143 T03500244
                 TSNO =
2016-07-25 10:53 METAR KOXB 251453Z AUTO 25008KT 10SM CLR 33/25 A2996 RMK AO2 SLP145 T03330250
                 50000 TSNO =
2016-07-25 09:53 METAR KOXB 251353Z AUTO 26008KT 10SM CLR 32/25 A2996 RMK AO2 SLP146 T03220250
                 TSNO =
2016-07-25 08:53 METAR KOXB 251253Z AUTO 24009KT 10SM CLR 30/24 A2997 RMK AO2 SLP147 T03000244
                 TSNO $ =
2016-07-25 07:53 METAR KOXB 251153Z AUTO 24008KT 10SM CLR 29/25 A2996 RMK AO2 SLP145 T02890250
                 58002 TSNO $ =
2016-07-25 06:53 METAR KOXB 251053Z AUTO 24007KT 10SM CLR 27/25 A2997 RMK AO2 SLP146 T02720250
                 TSNO $ =
2016-07-25 05:53 METAR KOXB 250953Z AUTO 00000KT 10SM CLR 26/25 A2996 RMK AO2 SLP146 T02610250
                 TSNO $ =
2016-07-25 04:53 METAR KOXB 250853Z AUTO 24004KT 10SM CLR A2996 RMK AO2 SLP147 55003 TSNO $ =
2016-07-25 03:53 METAR KOXB 250753Z AUTO 17003KT 10SM FEW048 A2995 RMK AO2 SLP143 TSNO $ =
2016-07-25 03:17 METAR KOXB 250717Z AUTO 19003KT 10SM SCT002 A2996 RMK AO2 TSNO $ =
2016-07-25 02:53 METAR KOXB 250653Z AUTO VRB03KT 10SM OVC002 A2997 RMK AO2 SLP150 TSNO $ =
2016-07-25 02:05 METAR KOXB 250605Z AUTO 18003KT 10SM BKN003 A2997 RMK AO2 TSNO $ =
2016-07-25 01:53 METAR KOXB 250553Z AUTO 16003KT 10SM SCT003 A2997 RMK AO2 SLP150 56012 TSNO $ =
2016-07-25 01:29 METAR KOXB 250529Z AUTO VRB03KT 10SM BKN002 A2997 RMK AO2 TSNO $ =
2016-07-25 01:19 METAR KOXB 250519Z AUTO 00000KT 10SM SCT002 A2997 RMK AO2 TSNO $ =
2016-07-25 00:53 METAR KOXB 250453Z AUTO 21003KT 10SM OVC002 A2998 RMK AO2 SLP153 402940233 TSNO
                 $ =
2016-07-25 00:10 METAR KOXB 250410Z AUTO VRB03KT 10SM BKN002 26/25 A2999 RMK AO2 T02560250 TSNO $
                 =
2016-07-24 23:53 METAR KOXB 250353Z AUTO VRB03KT 10SM SCT002 26/25 A2999 RMK AO2 SLP156 T02560250
                 TSNO =
2016-07-24 23:45 METAR KOXB 250345Z AUTO 00000KT 10SM BKN002 26/25 A2999 RMK AO2 T02560250 TSNO =
2016-07-24 23:26 METAR KOXB 250326Z AUTO VRB03KT 10SM FEW002 26/25 A3000 RMK AO2 T02560250 TSNO =
2016-07-24 22:53 METAR KOXB 250253Z AUTO 18003KT 10SM CLR 26/25 A3001 RMK AO2 SLP161 T02560250
                 51007 TSNO =
2016-07-24 21:53 METAR KOXB 250153Z AUTO VRB03KT 10SM CLR 26/25 A3001 RMK AO2 SLP161 T02610250
                 TSNO =
2016-07-24 20:53 METAR KOXB 250053Z AUTO 18003KT 10SM CLR 26/24 A3000 RMK AO2 SLP157 T02610244
                 TSNO =
2016-07-24 19:53 METAR KOXB 242353Z AUTO VRB03KT 10SM CLR 26/24 A2999 RMK AO2 SLP154 T02610244
                 10294 20261 53003 TSNO =
2016-07-24 18:53 METAR KOXB 242253Z AUTO 13004KT 10SM CLR 27/24 A2998 RMK AO2 SLP151 T02720239
                 TSNO =
2016-07-24 17:53 METAR KOXB 242153Z AUTO 12005KT 10SM CLR 28/24 A2997 RMK AO2 SLP150 T02780239
                 TSNO =
2016-07-24 16:53 METAR KOXB 242053Z AUTO 12005KT 10SM CLR 28/24 A2998 RMK AO2 SLP151 T02780239
                 56010 TSNO =
2016-07-24 15:53 METAR KOXB 241953Z AUTO 11006KT 10SM CLR 28/23 A2998 RMK AO2 SLP152 T02830233
                 TSNO =
2016-07-24 14:53 METAR KOXB 241853Z AUTO 12005KT 10SM CLR 28/23 A3000 RMK AO2 SLP158 T02830233
                 TSNO =
2016-07-24 13:53 METAR KOXB 241753Z AUTO 10005KT 10SM CLR 28/23 A3001 RMK AO2 SLP161 T02780233
                 10294 20272 51006 TSNO =

Support USWX by starting your Amazon purchase here.